Time;durP1;ratioP1;P1;durP2;ratioP2;P2;SDS_P1;SDS_P2;PMS_P1;PMS_P2;Temp;Humidity;BMP_temperature;BMP_pressure;BME280_temperature;BME280_humidity;BME280_pressure;Samples;Min_cycle;Max_cycle;Signal;HPM_P1;HPM_P2
2021/03/27 00:00:20;;;;;;;7.43;5.30;;;9.70;99.90;;;;;;5000475;28;20050;-80
2021/03/27 00:02:53;;;;;;;6.78;5.20;;;9.50;99.90;;;;;;4999988;28;20124;-80
2021/03/27 00:05:22;;;;;;;8.88;5.35;;;9.30;99.90;;;;;;4999854;28;20137;-81
2021/03/27 00:08:00;;;;;;;6.75;5.90;;;9.20;99.90;;;;;;5000736;28;20101;-82
2021/03/27 00:10:31;;;;;;;9.93;6.03;;;9.00;99.90;;;;;;5001703;28;20090;-81
2021/03/27 00:13:07;;;;;;;8.30;5.88;;;8.90;99.90;;;;;;5002776;28;20491;-80
2021/03/27 00:15:39;;;;;;;7.10;4.97;;;8.90;99.90;;;;;;5001186;28;20150;-82
2021/03/27 00:18:11;;;;;;;5.57;4.00;;;8.90;99.90;;;;;;5001738;28;20104;-82
2021/03/27 00:20:43;;;;;;;6.35;4.25;;;8.70;99.90;;;;;;5000775;28;20503;-82
2021/03/27 00:23:20;;;;;;;5.40;3.70;;;8.60;99.90;;;;;;5001087;28;20042;-81
2021/03/27 00:25:51;;;;;;;4.50;3.50;;;8.50;99.90;;;;;;4998763;28;20133;-82
2021/03/27 00:28:27;;;;;;;7.28;3.47;;;8.40;99.90;;;;;;5001204;28;20080;-81
2021/03/27 00:30:59;;;;;;;4.35;3.35;;;8.30;99.90;;;;;;5001236;28;20078;-82
2021/03/27 00:33:29;;;;;;;6.05;3.80;;;8.20;99.90;;;;;;5001818;28;20046;-82
2021/03/27 00:36:01;;;;;;;5.30;3.90;;;8.00;99.90;;;;;;5001038;28;20082;-79
2021/03/27 00:38:37;;;;;;;6.23;3.60;;;8.00;99.90;;;;;;5000362;28;20161;-81
2021/03/27 00:41:10;;;;;;;5.47;4.32;;;7.90;99.90;;;;;;5000306;28;20046;-82
2021/03/27 00:43:41;;;;;;;5.55;4.25;;;7.90;99.90;;;;;;4998132;28;20057;-79
2021/03/27 00:46:11;;;;;;;6.13;4.80;;;7.80;99.90;;;;;;4999004;28;20089;-81
2021/03/27 00:48:44;;;;;;;7.28;6.15;;;7.80;99.90;;;;;;4999992;28;20118;-82
2021/03/27 00:51:14;;;;;;;9.32;6.00;;;7.70;99.90;;;;;;5000207;28;20489;-81
2021/03/27 00:53:44;;;;;;;10.20;7.38;;;7.60;99.90;;;;;;4999549;28;20053;-80
2021/03/27 00:56:15;;;;;;;8.60;6.72;;;7.60;99.90;;;;;;4983896;28;20150;-78
2021/03/27 00:58:45;;;;;;;10.23;6.45;;;7.60;99.90;;;;;;5000594;28;20054;-81
2021/03/27 01:01:14;;;;;;;10.00;5.15;;;7.50;99.90;;;;;;5002537;28;20123;-80
2021/03/27 01:03:44;;;;;;;5.75;4.65;;;7.50;99.90;;;;;;5003614;28;20132;-81
2021/03/27 01:06:15;;;;;;;5.47;4.30;;;7.50;99.90;;;;;;5002389;28;20070;-79
2021/03/27 01:08:45;;;;;;;5.82;4.40;;;7.30;99.90;;;;;;5003860;28;20086;-82
2021/03/27 01:11:19;;;;;;;4.82;4.03;;;7.30;99.90;;;;;;5000610;28;20065;-80
2021/03/27 01:13:49;;;;;;;5.65;4.20;;;7.30;99.90;;;;;;5000702;28;20590;-80
2021/03/27 01:16:22;;;;;;;5.38;3.92;;;7.20;99.90;;;;;;5004373;28;20046;-78
2021/03/27 01:18:54;;;;;;;6.78;3.85;;;7.20;99.90;;;;;;4997359;28;20053;-80
2021/03/27 01:21:27;;;;;;;7.28;5.20;;;7.20;99.90;;;;;;5004764;28;20077;-79
2021/03/27 01:23:59;;;;;;;6.15;4.15;;;7.20;99.90;;;;;;5001715;28;20472;-79
2021/03/27 01:26:30;;;;;;;10.10;4.72;;;7.10;99.90;;;;;;5002446;28;20474;-81
2021/03/27 01:28:59;;;;;;;8.20;3.70;;;7.10;99.90;;;;;;5002203;28;20085;-80
2021/03/27 01:31:37;;;;;;;7.53;4.00;;;7.00;99.90;;;;;;5005757;28;20116;-79
2021/03/27 01:34:10;;;;;;;6.90;4.15;;;7.00;99.90;;;;;;5002614;28;20105;-80
2021/03/27 01:36:41;;;;;;;6.18;3.65;;;7.00;99.90;;;;;;5000511;28;20112;-80
2021/03/27 01:39:12;;;;;;;6.38;3.60;;;7.00;99.90;;;;;;4999791;28;20126;-79
2021/03/27 01:41:53;;;;;;;5.85;3.50;;;7.00;99.90;;;;;;5000061;28;20081;-82
2021/03/27 01:44:33;;;;;;;4.68;3.65;;;7.10;99.90;;;;;;5000894;28;20077;-81
2021/03/27 01:47:08;;;;;;;6.75;4.18;;;7.00;99.90;;;;;;4999284;28;20082;-80
2021/03/27 01:49:57;;;;;;;5.30;3.72;;;7.00;99.90;;;;;;5000421;28;20085;-81
2021/03/27 01:52:39;;;;;;;7.97;4.35;;;7.00;99.90;;;;;;5000126;28;20089;-81
2021/03/27 01:55:22;;;;;;;7.00;4.75;;;6.90;99.90;;;;;;4998658;28;20081;-82
2021/03/27 01:57:55;;;;;;;7.97;5.38;;;6.90;99.90;;;;;;4998824;28;20077;-80
2021/03/27 02:00:25;;;;;;;8.75;5.45;;;6.90;99.90;;;;;;4998828;28;20137;-82
2021/03/27 02:02:58;;;;;;;9.98;4.90;;;6.80;99.90;;;;;;4999292;28;20141;-79
2021/03/27 02:05:32;;;;;;;8.65;4.82;;;6.80;99.90;;;;;;4999582;28;20081;-80
2021/03/27 02:08:06;;;;;;;9.43;4.38;;;6.80;99.90;;;;;;4999242;28;20114;-80
2021/03/27 02:10:42;;;;;;;8.40;3.83;;;6.80;99.90;;;;;;4999722;28;20058;-79
2021/03/27 02:13:15;;;;;;;6.38;3.50;;;6.80;99.90;;;;;;5005518;28;20140;-79
2021/03/27 02:15:52;;;;;;;6.75;3.50;;;6.80;99.90;;;;;;5006281;28;20105;-78
2021/03/27 02:18:26;;;;;;;5.20;3.10;;;6.80;99.90;;;;;;5002174;28;20054;-80
2021/03/27 02:21:31;;;;;;;6.75;3.22;;;6.80;99.90;;;;;;4998655;28;20585;-80
2021/03/27 02:24:10;;;;;;;11.60;3.40;;;6.80;99.90;;;;;;4997532;28;20043;-80
2021/03/27 02:26:53;;;;;;;6.13;3.20;;;6.80;99.90;;;;;;4997489;28;20058;-79
2021/03/27 02:30:05;;;;;;;7.72;3.53;;;6.70;99.90;;;;;;4998671;28;20592;-79
2021/03/27 02:33:14;;;;;;;6.32;4.03;;;6.70;99.90;;;;;;4999076;28;20078;-80
2021/03/27 02:35:52;;;;;;;8.68;4.10;;;6.60;99.90;;;;;;4937599;29;20079;-79
2021/03/27 02:38:30;;;;;;;8.55;4.72;;;6.60;99.90;;;;;;4992338;28;20434;-79
2021/03/27 02:41:06;;;;;;;8.82;5.57;;;6.60;99.90;;;;;;4997281;28;20110;-79
2021/03/27 02:43:40;;;;;;;6.85;5.35;;;6.60;99.90;;;;;;4996964;28;20522;-79
2021/03/27 02:46:15;;;;;;;10.13;6.45;;;6.60;99.90;;;;;;4997579;28;20061;-78
2021/03/27 02:48:56;;;;;;;12.68;6.60;;;6.60;99.90;;;;;;4999333;28;20110;-80
2021/03/27 02:51:26;;;;;;;9.10;5.93;;;6.60;99.90;;;;;;4999247;28;20054;-79
2021/03/27 02:54:15;;;;;;;8.38;5.78;;;6.70;99.90;;;;;;4999574;28;20490;-80
2021/03/27 02:56:56;;;;;;;10.88;5.63;;;6.70;99.90;;;;;;4998435;28;20573;-79
2021/03/27 02:59:45;;;;;;;9.32;5.78;;;6.70;99.90;;;;;;5001958;28;20100;-79
2021/03/27 03:02:19;;;;;;;8.13;5.68;;;6.70;99.90;;;;;;5005865;28;20050;-81
2021/03/27 03:04:51;;;;;;;8.10;5.60;;;6.80;99.90;;;;;;5012857;28;20047;-80
2021/03/27 03:07:24;;;;;;;12.90;5.70;;;6.80;99.90;;;;;;5014456;28;20065;-80
2021/03/27 03:09:55;;;;;;;8.85;5.50;;;6.70;99.90;;;;;;5016325;28;20077;-80
2021/03/27 03:12:29;;;;;;;11.02;6.25;;;6.70;99.90;;;;;;5005096;28;20057;-80
2021/03/27 03:14:59;;;;;;;11.13;6.40;;;6.70;99.90;;;;;;5004417;28;20113;-80
2021/03/27 03:17:37;;;;;;;14.55;6.25;;;6.80;99.90;;;;;;5007190;28;20050;-80
2021/03/27 03:20:15;;;;;;;9.82;6.25;;;6.90;99.90;;;;;;5005349;28;20050;-80
2021/03/27 03:22:50;;;;;;;9.70;6.40;;;6.90;99.90;;;;;;5006740;28;20050;-81
2021/03/27 03:25:21;;;;;;;9.05;5.07;;;6.90;99.90;;;;;;5005301;28;20057;-80
2021/03/27 03:27:56;;;;;;;13.00;6.10;;;6.90;99.90;;;;;;5010982;28;20050;-80
2021/03/27 03:30:28;;;;;;;9.32;6.00;;;6.80;99.90;;;;;;5017397;28;20078;-80
2021/03/27 03:33:24;;;;;;;12.13;6.93;;;6.90;99.90;;;;;;5012446;28;20085;-80
2021/03/27 03:35:56;;;;;;;13.70;6.07;;;6.90;99.90;;;;;;5003613;28;20090;-81
2021/03/27 03:38:53;;;;;;;12.05;5.25;;;6.90;99.90;;;;;;5003009;28;20130;-81
2021/03/27 03:41:41;;;;;;;13.98;5.22;;;6.90;99.90;;;;;;5002250;28;20085;-81
2021/03/27 03:44:12;;;;;;;13.13;5.15;;;6.90;99.90;;;;;;5001023;28;20042;-81
2021/03/27 03:46:48;;;;;;;8.95;4.97;;;6.90;99.90;;;;;;5001272;28;20089;-79
2021/03/27 03:50:11;;;;;;;11.82;5.65;;;6.90;99.90;;;;;;5001782;28;20058;-79
2021/03/27 03:52:50;;;;;;;12.55;5.47;;;6.90;99.90;;;;;;4941844;29;20079;-80
2021/03/27 03:55:30;;;;;;;9.02;5.00;;;6.90;99.90;;;;;;4992485;28;20061;-81
2021/03/27 03:58:19;;;;;;;11.88;5.10;;;6.90;99.90;;;;;;5001406;28;20418;-80
2021/03/27 04:00:55;;;;;;;11.80;5.85;;;6.90;99.90;;;;;;4992925;28;20129;-80
2021/03/27 04:03:32;;;;;;;13.48;5.80;;;6.90;99.90;;;;;;5001151;28;20097;-81
2021/03/27 04:06:01;;;;;;;17.38;5.40;;;6.90;99.90;;;;;;5001615;28;20511;-83
2021/03/27 04:08:36;;;;;;;12.77;5.07;;;6.90;99.90;;;;;;5001775;28;20054;-80
2021/03/27 04:11:38;;;;;;;11.98;5.82;;;6.90;99.90;;;;;;5001666;28;20078;-81
2021/03/27 04:14:11;;;;;;;11.45;4.78;;;6.80;99.90;;;;;;5001576;28;20130;-81
2021/03/27 04:16:43;;;;;;;13.48;4.60;;;6.70;99.90;;;;;;5001496;28;20418;-81
2021/03/27 04:19:15;;;;;;;10.00;5.03;;;6.70;99.90;;;;;;5001364;28;20046;-81
2021/03/27 04:21:54;;;;;;;10.18;4.82;;;6.70;99.90;;;;;;5002051;28;20138;-80
2021/03/27 04:24:25;;;;;;;13.57;4.93;;;6.60;99.90;;;;;;5002272;28;20141;-82
2021/03/27 04:26:55;;;;;;;9.60;4.22;;;6.60;99.90;;;;;;5002782;28;20054;-82
2021/03/27 04:29:36;;;;;;;9.80;4.38;;;6.60;99.90;;;;;;5001805;28;20140;-80
2021/03/27 04:32:39;;;;;;;10.50;5.07;;;6.50;99.90;;;;;;5001957;28;20077;-80
2021/03/27 04:35:30;;;;;;;11.65;4.43;;;6.50;99.90;;;;;;4941136;29;20131;-81
2021/03/27 04:38:08;;;;;;;14.98;4.20;;;6.50;99.90;;;;;;4939123;29;20086;-81
2021/03/27 04:40:41;;;;;;;8.23;4.38;;;6.40;99.90;;;;;;4984672;28;20046;-81
2021/03/27 04:43:13;;;;;;;13.50;4.13;;;6.50;99.90;;;;;;5001255;28;20058;-81
2021/03/27 04:45:44;;;;;;;7.18;3.83;;;6.40;99.90;;;;;;5002937;28;20101;-81
2021/03/27 04:48:23;;;;;;;6.00;3.22;;;6.40;99.90;;;;;;5002170;28;20081;-81
2021/03/27 04:51:04;;;;;;;7.90;3.85;;;6.40;99.90;;;;;;5004761;28;20133;-81
2021/03/27 04:53:34;;;;;;;10.68;4.10;;;6.30;99.90;;;;;;5005313;28;20392;-81
2021/03/27 04:56:11;;;;;;;9.07;3.80;;;6.30;99.90;;;;;;5001367;28;20070;-79
2021/03/27 04:58:44;;;;;;;12.07;5.88;;;6.20;99.90;;;;;;4998497;28;20126;-79
2021/03/27 05:01:19;;;;;;;8.10;3.33;;;6.20;99.90;;;;;;4997690;28;20054;-79
2021/03/27 05:03:54;;;;;;;8.13;3.75;;;6.20;99.90;;;;;;4997958;28;20525;-79
2021/03/27 05:06:33;;;;;;;11.90;3.80;;;6.20;99.90;;;;;;4998402;28;20125;-79
2021/03/27 05:09:30;;;;;;;8.85;3.28;;;6.30;99.90;;;;;;4999484;28;20051;-80
2021/03/27 05:12:00;;;;;;;10.60;3.63;;;6.20;99.90;;;;;;4998591;28;20474;-80
2021/03/27 05:15:03;;;;;;;10.05;3.80;;;6.30;99.90;;;;;;4999186;28;20112;-80
2021/03/27 05:17:53;;;;;;;10.57;3.83;;;6.30;99.90;;;;;;4999602;28;20058;-81
2021/03/27 05:20:24;;;;;;;9.90;3.80;;;6.40;99.90;;;;;;4999589;28;20061;-80
2021/03/27 05:23:02;;;;;;;9.77;4.13;;;6.40;99.90;;;;;;5000508;28;20110;-80
2021/03/27 05:25:38;;;;;;;9.75;4.25;;;6.40;99.90;;;;;;5001475;28;20042;-80
2021/03/27 05:28:19;;;;;;;14.63;4.05;;;6.40;99.90;;;;;;5000937;28;20111;-80
2021/03/27 05:30:51;;;;;;;11.93;4.05;;;6.40;99.90;;;;;;4999710;28;20555;-80
2021/03/27 05:33:43;;;;;;;8.90;4.03;;;6.40;99.90;;;;;;5001543;28;20108;-79
2021/03/27 05:36:48;;;;;;;13.18;4.35;;;6.40;99.90;;;;;;4999205;28;20329;-79
2021/03/27 05:39:31;;;;;;;11.63;4.10;;;6.50;99.90;;;;;;4940917;29;20509;-79
2021/03/27 05:42:39;;;;;;;16.60;4.05;;;6.50;99.90;;;;;;4993222;28;20090;-80
2021/03/27 05:45:40;;;;;;;17.30;4.72;;;6.50;99.90;;;;;;4992149;28;20077;-79
2021/03/27 05:48:39;;;;;;;11.32;4.15;;;6.50;99.90;;;;;;5006950;28;20134;-79
2021/03/27 05:51:41;;;;;;;13.15;4.80;;;6.50;99.90;;;;;;5005620;28;20054;-79
2021/03/27 05:54:26;;;;;;;10.75;4.53;;;6.60;99.90;;;;;;4989730;28;20106;-81
2021/03/27 05:57:28;;;;;;;17.33;4.80;;;6.60;99.90;;;;;;4998163;28;20205;-81
2021/03/27 06:00:33;;;;;;;11.90;4.70;;;6.60;99.90;;;;;;4997609;28;20141;-81
2021/03/27 06:03:23;;;;;;;10.65;5.22;;;6.60;99.90;;;;;;5000121;28;20069;-80
2021/03/27 06:06:28;;;;;;;14.55;4.88;;;6.70;99.90;;;;;;5000600;28;20062;-81
2021/03/27 06:09:39;;;;;;;14.10;4.93;;;6.70;99.90;;;;;;5001848;28;20082;-80
2021/03/27 06:12:38;;;;;;;12.30;5.40;;;6.70;99.90;;;;;;4940902;29;20052;-81
2021/03/27 06:15:28;;;;;;;13.77;4.90;;;6.90;99.90;;;;;;4998277;28;20135;-80
2021/03/27 06:18:23;;;;;;;19.85;5.15;;;7.00;99.90;;;;;;4999030;28;20133;-81
2021/03/27 06:21:08;;;;;;;14.18;4.53;;;7.10;99.90;;;;;;4999626;28;20522;-81
2021/03/27 06:24:05;;;;;;;15.82;4.55;;;7.10;99.90;;;;;;4999077;28;20137;-81
2021/03/27 06:27:02;;;;;;;17.42;5.38;;;7.30;99.90;;;;;;4998650;28;20477;-80
2021/03/27 06:30:17;;;;;;;12.98;4.88;;;7.30;99.90;;;;;;4997922;28;20082;-80
2021/03/27 06:33:19;;;;;;;12.18;4.82;;;7.20;99.90;;;;;;4993570;28;20093;-80
2021/03/27 06:36:08;;;;;;;16.65;4.95;;;7.20;99.90;;;;;;4947531;28;20050;-80
2021/03/27 06:39:07;;;;;;;11.70;4.60;;;7.10;99.90;;;;;;4999033;28;20046;-79
2021/03/27 06:42:11;;;;;;;16.05;4.68;;;7.10;99.90;;;;;;5002090;28;20081;-79
2021/03/27 06:44:53;;;;;;;;;;;7.00;99.90;;;;;;5006021;28;20106;-78
2021/03/27 06:47:35;;;;;;;9.32;3.75;;;6.90;99.90;;;;;;5006157;28;20020;-81
2021/03/27 06:50:31;;;;;;;8.57;3.90;;;6.50;99.90;;;;;;5008607;28;20135;-83
2021/03/27 06:53:35;;;;;;;6.35;2.92;;;6.20;99.90;;;;;;5006747;28;20292;-82
2021/03/27 06:56:31;;;;;;;11.02;3.88;;;5.80;99.90;;;;;;5002869;28;20510;-81
2021/03/27 06:59:14;;;;;;;6.13;2.67;;;5.50;99.90;;;;;;5003303;28;20061;-80
2021/03/27 07:02:15;;;;;;;5.93;2.47;;;5.40;99.90;;;;;;5002446;28;20081;-78
2021/03/27 07:05:06;;;;;;;4.00;2.72;;;5.30;99.90;;;;;;5001696;28;20173;-80
2021/03/27 07:07:58;;;;;;;6.43;2.60;;;5.20;99.90;;;;;;4993417;28;20093;-80
2021/03/27 07:11:06;;;;;;;5.72;2.40;;;5.20;99.90;;;;;;4971007;28;20173;-80
2021/03/27 07:14:05;;;;;;;3.90;2.30;;;5.20;99.90;;;;;;5001028;28;20054;-81
2021/03/27 07:16:36;;;;;;;5.13;2.80;;;5.10;99.90;;;;;;5001802;28;20090;-81
2021/03/27 07:19:56;;;;;;;5.32;2.70;;;5.10;99.90;;;;;;5002841;28;20133;-81
2021/03/27 07:22:32;;;;;;;4.43;2.40;;;5.20;99.90;;;;;;5003225;28;20105;-80
2021/03/27 07:25:25;;;;;;;6.38;1.95;;;5.20;99.90;;;;;;5003385;28;20046;-79
2021/03/27 07:28:11;;;;;;;5.47;2.00;;;5.20;99.90;;;;;;5004749;28;20113;-81
2021/03/27 07:31:14;;;;;;;5.53;2.40;;;5.30;99.90;;;;;;5008242;28;20054;-83
2021/03/27 07:34:06;;;;;;;3.53;2.15;;;5.40;99.90;;;;;;5009520;28;20080;-81
2021/03/27 07:37:08;;;;;;;5.97;2.15;;;5.40;99.90;;;;;;5014148;28;20062;-82
2021/03/27 07:39:51;;;;;;;6.65;1.90;;;5.60;99.90;;;;;;5003436;28;20128;-82
2021/03/27 07:42:34;;;;;;;;;;;5.70;99.90;;;;;;5001449;28;20146;-80
2021/03/27 07:45:10;;;;;;;4.32;1.90;;;6.00;99.90;;;;;;5000510;28;20021;-81
2021/03/27 07:47:55;;;;;;;4.22;2.30;;;6.30;99.90;;;;;;5002918;28;20097;-81
2021/03/27 07:50:47;;;;;;;5.63;2.58;;;6.90;99.90;;;;;;5002218;28;20427;-81
2021/03/27 07:53:32;;;;;;;6.43;2.63;;;7.20;99.90;;;;;;5001341;28;20056;-82
2021/03/27 07:56:32;;;;;;;5.30;2.63;;;7.30;99.90;;;;;;5001855;28;20109;-80
2021/03/27 07:59:26;;;;;;;5.45;2.58;;;7.80;99.90;;;;;;5002309;28;20133;-79
2021/03/27 08:02:01;;;;;;;5.60;2.42;;;7.90;99.90;;;;;;5001688;28;20476;-81
2021/03/27 08:05:01;;;;;;;6.00;2.75;;;8.10;99.90;;;;;;5002720;28;20102;-80
2021/03/27 08:07:57;;;;;;;6.28;2.65;;;8.10;99.90;;;;;;5000794;28;20082;-79
2021/03/27 08:10:34;;;;;;;6.13;2.90;;;8.00;99.90;;;;;;4998718;28;20101;-81
2021/03/27 08:13:29;;;;;;;6.15;2.63;;;8.50;99.90;;;;;;4998626;28;20226;-80
2021/03/27 08:16:28;;;;;;;9.50;2.72;;;8.70;99.90;;;;;;4999822;28;20364;-81
2021/03/27 08:19:25;;;;;;;5.60;3.05;;;8.90;99.90;;;;;;5000135;28;20054;-79
2021/03/27 08:22:01;;;;;;;8.00;2.97;;;9.10;99.90;;;;;;4977283;28;20057;-77
2021/03/27 08:24:44;;;;;;;5.15;2.72;;;9.10;99.90;;;;;;4999413;28;20132;-78
2021/03/27 08:27:25;;;;;;;;;;;9.10;99.90;;;;;;4999615;28;20074;-78
2021/03/27 08:30:29;;;;;;;8.00;3.45;;;9.00;99.90;;;;;;4990739;28;19922;-79
2021/03/27 08:33:20;;;;;;;;;;;9.00;99.90;;;;;;4998987;28;20081;-80
2021/03/27 08:36:22;;;;;;;13.80;3.75;;;9.00;99.90;;;;;;5000184;28;20024;-80
2021/03/27 08:39:17;;;;;;;9.73;3.80;;;9.20;99.90;;;;;;4987303;28;20054;-80
2021/03/27 08:42:01;;;;;;;6.45;3.13;;;9.30;99.90;;;;;;5001778;28;20482;-82
2021/03/27 08:44:51;;;;;;;8.63;3.60;;;9.20;99.90;;;;;;5001859;28;20100;-80
2021/03/27 08:47:36;;;;;;;11.10;4.00;;;9.20;99.90;;;;;;5007359;28;20111;-83
2021/03/27 08:50:40;;;;;;;8.88;3.38;;;9.30;99.90;;;;;;5016149;28;20078;-83
2021/03/27 08:53:39;;;;;;;14.98;4.00;;;9.70;99.90;;;;;;5015102;28;20078;-83
2021/03/27 08:56:50;;;;;;;14.23;3.97;;;9.80;99.90;;;;;;5005763;28;20121;-80
2021/03/27 09:00:00;;;;;;;13.30;3.75;;;10.10;99.90;;;;;;5000246;28;20050;-81
2021/03/27 09:02:38;;;;;;;10.68;4.38;;;10.20;99.90;;;;;;5002003;28;20058;-80
2021/03/27 09:05:31;;;;;;;13.07;3.70;;;10.30;99.90;;;;;;5006577;28;20047;-80
2021/03/27 09:08:21;;;;;;;9.63;3.77;;;10.30;99.90;;;;;;5005981;28;20054;-80
2021/03/27 09:11:13;;;;;;;14.55;4.63;;;10.10;99.90;;;;;;5009108;28;20054;-81
2021/03/27 09:14:03;;;;;;;13.25;5.15;;;9.90;99.90;;;;;;5011348;28;20050;-80
2021/03/27 09:16:55;;;;;;;14.85;4.53;;;10.10;99.90;;;;;;5009950;28;20467;-80
2021/03/27 09:19:58;;;;;;;12.47;4.00;;;10.30;99.90;;;;;;5002160;28;20138;-80
2021/03/27 09:22:54;;;;;;;13.13;4.18;;;10.20;99.90;;;;;;5000654;28;20061;-80
2021/03/27 09:25:50;;;;;;;8.85;3.92;;;10.10;99.90;;;;;;5001697;28;20102;-80
2021/03/27 09:28:35;;;;;;;12.20;3.90;;;10.10;99.90;;;;;;5005735;28;20138;-80
2021/03/27 09:31:31;;;;;;;9.73;3.58;;;9.80;99.90;;;;;;5001019;28;20446;-81
2021/03/27 09:34:05;;;;;;;15.18;4.60;;;9.50;99.90;;;;;;4997547;28;20131;-81
2021/03/27 09:36:36;;;;;;;12.20;3.95;;;9.30;99.90;;;;;;4999404;28;20050;-81
2021/03/27 09:39:15;;;;;;;14.25;4.50;;;9.20;99.90;;;;;;5000152;28;20139;-81
2021/03/27 09:42:03;;;;;;;12.15;4.50;;;9.30;99.90;;;;;;4999396;28;20548;-81
2021/03/27 09:45:04;;;;;;;13.43;4.47;;;9.50;99.90;;;;;;5000008;28;20133;-81
2021/03/27 09:48:10;;;;;;;9.38;4.32;;;9.70;99.90;;;;;;5001295;28;20086;-81
2021/03/27 09:50:41;;;;;;;15.52;4.70;;;9.90;99.90;;;;;;5001087;28;20126;-81
2021/03/27 09:53:20;;;;;;;13.30;3.83;;;10.00;99.90;;;;;;5003147;28;20070;-81
2021/03/27 09:55:55;;;;;;;9.30;3.97;;;10.10;99.90;;;;;;4999809;28;20086;-80
2021/03/27 09:58:42;;;;;;;9.20;3.80;;;10.00;99.90;;;;;;4999927;28;20061;-80
2021/03/27 10:01:26;;;;;;;15.77;5.20;;;9.90;99.90;;;;;;4999032;28;20566;-81
2021/03/27 10:04:19;;;;;;;14.75;4.60;;;9.80;99.90;;;;;;4999464;28;20050;-80
2021/03/27 10:07:17;;;;;;;18.25;4.60;;;9.60;99.90;;;;;;4999507;28;20061;-81
2021/03/27 10:09:55;;;;;;;15.05;4.40;;;9.40;99.90;;;;;;4999914;28;20057;-82
2021/03/27 10:12:26;;;;;;;13.90;4.00;;;9.40;99.90;;;;;;5000322;28;20096;-81
2021/03/27 10:14:56;;;;;;;12.82;4.60;;;9.30;99.90;;;;;;4999008;28;20054;-80
2021/03/27 10:17:31;;;;;;;15.27;4.68;;;9.20;99.90;;;;;;5001574;28;20109;-81
2021/03/27 10:20:05;;;;;;;13.65;4.25;;;9.20;99.90;;;;;;5005757;28;20078;-82
2021/03/27 10:22:40;;;;;;;11.85;4.15;;;9.40;99.90;;;;;;5006285;28;20050;-82
2021/03/27 10:25:18;;;;;;;13.32;3.95;;;9.70;99.90;;;;;;5001675;28;20114;-81
2021/03/27 10:27:51;;;;;;;7.85;3.70;;;10.10;99.90;;;;;;5001111;28;20153;-82
2021/03/27 10:30:23;;;;;;;14.23;4.43;;;10.40;99.90;;;;;;4999825;28;20054;-81
2021/03/27 10:33:04;;;;;;;15.90;4.70;;;10.80;99.90;;;;;;4998805;28;20396;-80
2021/03/27 10:35:53;;;;;;;10.70;3.92;;;11.00;99.90;;;;;;4999033;28;20104;-81
2021/03/27 10:38:53;;;;;;;8.43;4.20;;;10.90;99.90;;;;;;4998090;28;20054;-80
2021/03/27 10:41:25;;;;;;;10.13;4.00;;;11.00;99.90;;;;;;5000838;28;20073;-81
2021/03/27 10:44:03;;;;;;;14.55;3.85;;;11.10;99.90;;;;;;5000921;28;20530;-80
2021/03/27 10:46:38;;;;;;;13.75;3.72;;;11.10;99.90;;;;;;5000000;28;20065;-80
2021/03/27 10:49:16;;;;;;;12.90;3.78;;;10.90;99.90;;;;;;4999375;28;20141;-81
2021/03/27 10:52:29;;;;;;;11.52;3.75;;;10.80;99.90;;;;;;4995328;28;20054;-80
2021/03/27 10:55:29;;;;;;;10.18;3.80;;;10.70;99.90;;;;;;5025802;23;20052;-78
2021/03/27 10:58:26;;;;;;;11.50;4.20;;;10.40;99.90;;;;;;5030583;28;20049;-78
2021/03/27 11:01:00;;;;;;;9.80;3.83;;;10.20;99.90;;;;;;5027860;28;20140;-79
2021/03/27 11:04:00;;;;;;;8.07;4.38;;;10.30;99.90;;;;;;5026395;28;20129;-79
2021/03/27 11:06:54;;;;;;;9.25;3.97;;;10.30;99.90;;;;;;5004776;28;20135;-78
2021/03/27 11:10:00;;;;;;;10.77;3.58;;;10.30;99.90;;;;;;5003945;28;20129;-76
2021/03/27 11:12:50;;;;;;;8.38;3.67;;;10.20;99.90;;;;;;5009190;28;20125;-80
2021/03/27 11:15:43;;;;;;;9.60;3.42;;;10.10;99.90;;;;;;5006984;28;20053;-80
2021/03/27 11:18:50;;;;;;;11.07;3.63;;;10.20;99.90;;;;;;5008703;28;20081;-80
2021/03/27 11:21:31;;;;;;;7.75;3.70;;;10.50;99.90;;;;;;5009816;28;20096;-80
2021/03/27 11:24:36;;;;;;;9.55;3.65;;;10.40;99.90;;;;;;5009406;28;20082;-79
2021/03/27 11:27:38;;;;;;;11.32;3.78;;;10.60;99.90;;;;;;5004443;28;20050;-80
2021/03/27 11:30:12;;;;;;;7.78;3.70;;;10.70;99.90;;;;;;5012590;28;20078;-80
2021/03/27 11:32:44;;;;;;;10.95;3.97;;;10.30;99.90;;;;;;5011999;28;20129;-80
2021/03/27 11:35:18;;;;;;;9.65;3.42;;;10.30;99.90;;;;;;5011777;28;20077;-79
2021/03/27 11:38:08;;;;;;;9.05;3.60;;;10.30;99.90;;;;;;5007785;28;20561;-79
2021/03/27 11:40:42;;;;;;;10.07;3.80;;;10.30;99.90;;;;;;5005115;28;20081;-79
2021/03/27 11:43:44;;;;;;;10.82;3.90;;;10.30;99.90;;;;;;5007754;28;20050;-78
2021/03/27 11:46:18;;;;;;;9.38;4.60;;;10.40;99.90;;;;;;5006761;28;20161;-77
2021/03/27 11:48:49;;;;;;;12.82;4.50;;;10.50;99.90;;;;;;5003471;28;20046;-78
2021/03/27 11:51:22;;;;;;;10.20;4.35;;;10.60;99.90;;;;;;5011219;28;20058;-78
2021/03/27 11:54:12;;;;;;;6.93;4.05;;;10.70;99.90;;;;;;5011395;28;20056;-79
2021/03/27 11:56:45;;;;;;;9.98;4.32;;;10.80;99.90;;;;;;5007514;28;20085;-78
2021/03/27 12:00:47;;;;;;;7.93;3.90;;;10.90;99.90;;;;;;5006195;28;20196;-79
2021/03/27 12:02:47;;;;;;;13.45;4.40;;;10.90;99.90;;;;;;5001851;28;20125;-79
2021/03/27 12:05:20;;;;;;;10.23;3.95;;;10.90;99.90;;;;;;5001574;28;20053;-78
2021/03/27 12:08:00;;;;;;;13.55;4.55;;;11.10;99.90;;;;;;5011035;28;20066;-80
2021/03/27 12:10:38;;;;;;;11.07;3.90;;;11.20;99.90;;;;;;5003626;28;20129;-78
2021/03/27 12:13:11;;;;;;;7.80;3.90;;;11.10;99.90;;;;;;5014054;28;20553;-79
2021/03/27 12:15:44;;;;;;;11.95;4.38;;;11.00;99.90;;;;;;5002892;28;20054;-79
2021/03/27 12:18:17;;;;;;;8.07;3.85;;;10.70;99.90;;;;;;4998770;28;20483;-77
2021/03/27 12:20:55;;;;;;;18.83;4.20;;;10.60;99.90;;;;;;5010214;28;20046;-79
2021/03/27 12:23:28;;;;;;;18.80;4.72;;;10.70;99.90;;;;;;5006637;28;20110;-78
2021/03/27 12:26:19;;;;;;;;;;;10.90;99.90;;;;;;4999873;28;20065;-77
2021/03/27 12:28:59;;;;;;;12.05;4.32;;;11.30;99.90;;;;;;5001254;28;20346;-78
2021/03/27 12:31:36;;;;;;;7.70;3.75;;;11.60;99.90;;;;;;5003040;28;20537;-78
2021/03/27 12:34:14;;;;;;;10.15;4.07;;;11.70;99.90;;;;;;5010885;28;20161;-78
2021/03/27 12:36:50;;;;;;;11.85;4.97;;;11.70;99.90;;;;;;4996625;28;20132;-79
2021/03/27 12:39:25;;;;;;;10.13;4.20;;;11.50;99.90;;;;;;5007377;28;20065;-78
2021/03/27 12:42:03;;;;;;;7.30;4.00;;;11.40;99.90;;;;;;5005768;28;20078;-78
2021/03/27 12:44:34;;;;;;;10.02;4.15;;;11.20;99.90;;;;;;5011510;28;20133;-78
2021/03/27 12:47:24;;;;;;;10.13;3.95;;;11.30;99.90;;;;;;5006220;28;20513;-78
2021/03/27 12:50:24;;;;;;;10.98;3.80;;;11.40;99.90;;;;;;5011542;28;20480;-78
2021/03/27 12:53:13;;;;;;;10.82;4.45;;;11.50;99.90;;;;;;4997438;28;20137;-79
2021/03/27 12:55:43;;;;;;;9.73;4.20;;;11.50;99.90;;;;;;4983980;28;20119;-78
2021/03/27 12:58:39;;;;;;;9.18;4.78;;;11.80;99.90;;;;;;5014097;28;20518;-80
2021/03/27 13:01:38;;;;;;;9.05;4.47;;;11.90;99.90;;;;;;4996768;28;20113;-79
2021/03/27 13:04:48;;;;;;;10.40;4.28;;;12.00;99.90;;;;;;5012099;28;20105;-80
2021/03/27 13:07:22;;;;;;;7.20;3.90;;;12.00;99.90;;;;;;4972881;28;20066;-81
2021/03/27 13:10:09;;;;;;;6.90;4.00;;;12.10;99.90;;;;;;5014243;28;20081;-80
2021/03/27 13:12:44;;;;;;;7.75;3.92;;;12.00;99.90;;;;;;5002370;28;20126;-78
2021/03/27 13:15:26;;;;;;;8.43;4.40;;;12.10;99.90;;;;;;5004820;28;20129;-78
2021/03/27 13:18:32;;;;;;;10.25;4.15;;;12.10;99.90;;;;;;5008528;28;20519;-78
2021/03/27 13:21:13;;;;;;;8.23;3.60;;;12.00;99.90;;;;;;5001463;28;20077;-76
2021/03/27 13:23:45;;;;;;;7.68;3.45;;;11.80;99.90;;;;;;5001690;28;20172;-78
2021/03/27 13:26:19;;;;;;;6.30;2.97;;;11.70;99.90;;;;;;5006903;28;20081;-75
2021/03/27 13:28:53;;;;;;;4.90;3.33;;;11.60;99.90;;;;;;5007646;28;20052;-74
2021/03/27 13:31:24;;;;;;;8.27;3.60;;;11.70;99.90;;;;;;5002593;28;20069;-76
2021/03/27 13:33:57;;;;;;;9.18;4.20;;;11.70;99.90;;;;;;4997503;28;20072;-77
2021/03/27 13:36:30;;;;;;;8.35;3.60;;;11.50;99.90;;;;;;4999193;28;20121;-78
2021/03/27 13:39:19;;;;;;;5.90;3.45;;;11.50;99.90;;;;;;5003899;28;20086;-78
2021/03/27 13:42:23;;;;;;;7.63;3.20;;;11.50;99.90;;;;;;5010743;28;20046;-79
2021/03/27 13:44:58;;;;;;;9.97;4.53;;;11.20;99.90;;;;;;5002235;28;20125;-78
2021/03/27 13:47:38;;;;;;;9.35;4.28;;;11.00;99.90;;;;;;5008092;28;20054;-79
2021/03/27 13:50:34;;;;;;;6.95;3.63;;;11.10;99.90;;;;;;4996707;28;20136;-79
2021/03/27 13:53:18;;;;;;;9.00;3.70;;;11.20;99.90;;;;;;5004848;28;20137;-78
2021/03/27 13:56:02;;;;;;;6.55;3.15;;;11.10;99.90;;;;;;5008771;28;20134;-77
2021/03/27 13:58:34;;;;;;;;;;;10.90;99.90;;;;;;4995429;28;20185;-77
2021/03/27 14:01:07;;;;;;;7.70;2.95;;;10.90;99.90;;;;;;5008247;28;19921;-78
2021/03/27 14:03:44;;;;;;;11.00;3.15;;;11.00;99.90;;;;;;5010044;28;20073;-78
2021/03/27 14:06:24;;;;;;;10.75;3.30;;;11.10;99.90;;;;;;5006829;28;20129;-79
2021/03/27 14:09:27;;;;;;;9.88;3.30;;;11.20;99.90;;;;;;5009408;28;20045;-80
2021/03/27 14:11:58;;;;;;;10.77;3.45;;;11.10;99.90;;;;;;5009164;28;20061;-78
2021/03/27 14:14:33;;;;;;;4.28;2.95;;;11.10;99.90;;;;;;5007852;28;20105;-80